sensor_id;sensor_type;location;lat;lon;timestamp;temperature;humidity
65072;DHT22;51663;52.310;17.016;2023-06-26T00:02:56;35.90;32.70
65072;DHT22;51663;52.310;17.016;2023-06-26T00:05:59;35.90;32.70
65072;DHT22;51663;52.310;17.016;2023-06-26T00:09:02;35.90;32.30
65072;DHT22;51663;52.310;17.016;2023-06-26T00:12:05;35.90;32.30
65072;DHT22;51663;52.310;17.016;2023-06-26T00:15:07;35.90;32.40
65072;DHT22;51663;52.310;17.016;2023-06-26T00:18:10;35.80;32.10
65072;DHT22;51663;52.310;17.016;2023-06-26T00:21:12;35.80;32.20
65072;DHT22;51663;52.310;17.016;2023-06-26T00:24:15;35.90;32.20
65072;DHT22;51663;52.310;17.016;2023-06-26T00:27:17;35.90;32.80
65072;DHT22;51663;52.310;17.016;2023-06-26T00:30:19;35.80;32.20
65072;DHT22;51663;52.310;17.016;2023-06-26T00:33:21;35.70;32.40
65072;DHT22;51663;52.310;17.016;2023-06-26T00:36:24;35.70;32.30
65072;DHT22;51663;52.310;17.016;2023-06-26T00:39:28;35.70;32.30
65072;DHT22;51663;52.310;17.016;2023-06-26T00:42:30;35.80;32.10
65072;DHT22;51663;52.310;17.016;2023-06-26T00:45:32;35.70;32.50
65072;DHT22;51663;52.310;17.016;2023-06-26T00:48:46;35.70;32.30
65072;DHT22;51663;52.310;17.016;2023-06-26T00:51:49;35.70;32.30
65072;DHT22;51663;52.310;17.016;2023-06-26T00:54:52;35.70;32.60
65072;DHT22;51663;52.310;17.016;2023-06-26T00:57:55;35.60;32.50
65072;DHT22;51663;52.310;17.016;2023-06-26T01:00:58;35.60;33.20
65072;DHT22;51663;52.310;17.016;2023-06-26T01:04:00;35.60;32.20
65072;DHT22;51663;52.310;17.016;2023-06-26T01:07:03;35.50;32.10
65072;DHT22;51663;52.310;17.016;2023-06-26T01:10:06;35.50;32.20
65072;DHT22;51663;52.310;17.016;2023-06-26T01:13:09;35.40;32.10
65072;DHT22;51663;52.310;17.016;2023-06-26T01:16:11;35.30;32.30
65072;DHT22;51663;52.310;17.016;2023-06-26T01:19:20;35.40;32.40
65072;DHT22;51663;52.310;17.016;2023-06-26T01:22:57;35.40;32.30
65072;DHT22;51663;52.310;17.016;2023-06-26T01:26:20;35.30;32.40
65072;DHT22;51663;52.310;17.016;2023-06-26T01:29:24;35.30;32.50
65072;DHT22;51663;52.310;17.016;2023-06-26T01:32:28;35.30;32.40
65072;DHT22;51663;52.310;17.016;2023-06-26T01:35:31;35.30;32.50
65072;DHT22;51663;52.310;17.016;2023-06-26T01:38:34;35.20;32.60
65072;DHT22;51663;52.310;17.016;2023-06-26T01:41:38;35.10;32.30
65072;DHT22;51663;52.310;17.016;2023-06-26T01:44:45;35.00;32.70
65072;DHT22;51663;52.310;17.016;2023-06-26T01:47:50;35.10;32.90
65072;DHT22;51663;52.310;17.016;2023-06-26T01:50:53;35.10;32.50
65072;DHT22;51663;52.310;17.016;2023-06-26T01:53:57;35.10;32.20
65072;DHT22;51663;52.310;17.016;2023-06-26T01:57:00;35.10;32.30
65072;DHT22;51663;52.310;17.016;2023-06-26T02:00:03;35.10;31.90
65072;DHT22;51663;52.310;17.016;2023-06-26T02:03:06;35.00;32.00
65072;DHT22;51663;52.310;17.016;2023-06-26T02:06:08;34.90;32.40
65072;DHT22;51663;52.310;17.016;2023-06-26T02:09:11;34.90;32.30
65072;DHT22;51663;52.310;17.016;2023-06-26T02:12:13;34.90;32.20
65072;DHT22;51663;52.310;17.016;2023-06-26T02:15:15;35.00;32.00
65072;DHT22;51663;52.310;17.016;2023-06-26T02:18:17;35.00;32.10
65072;DHT22;51663;52.310;17.016;2023-06-26T02:21:20;35.00;32.20
65072;DHT22;51663;52.310;17.016;2023-06-26T02:24:22;34.90;32.50
65072;DHT22;51663;52.310;17.016;2023-06-26T02:27:24;34.90;32.60
65072;DHT22;51663;52.310;17.016;2023-06-26T02:30:26;34.90;32.70
65072;DHT22;51663;52.310;17.016;2023-06-26T02:33:28;35.00;32.40
65072;DHT22;51663;52.310;17.016;2023-06-26T02:36:30;35.00;32.20
65072;DHT22;51663;52.310;17.016;2023-06-26T02:39:34;35.00;32.10
65072;DHT22;51663;52.310;17.016;2023-06-26T02:42:36;35.00;32.10
65072;DHT22;51663;52.310;17.016;2023-06-26T02:45:39;35.00;32.00
65072;DHT22;51663;52.310;17.016;2023-06-26T02:48:41;35.00;31.80
65072;DHT22;51663;52.310;17.016;2023-06-26T02:51:43;35.00;31.80
65072;DHT22;51663;52.310;17.016;2023-06-26T02:54:45;35.00;32.00
65072;DHT22;51663;52.310;17.016;2023-06-26T02:57:47;35.10;31.90
65072;DHT22;51663;52.310;17.016;2023-06-26T03:00:49;35.10;31.70
65072;DHT22;51663;52.310;17.016;2023-06-26T03:03:52;35.10;31.90
65072;DHT22;51663;52.310;17.016;2023-06-26T03:06:54;35.10;31.80
65072;DHT22;51663;52.310;17.016;2023-06-26T03:09:56;35.30;31.90
65072;DHT22;51663;52.310;17.016;2023-06-26T03:12:58;35.80;31.40
65072;DHT22;51663;52.310;17.016;2023-06-26T03:16:01;36.40;30.80
65072;DHT22;51663;52.310;17.016;2023-06-26T03:19:03;37.00;30.20
65072;DHT22;51663;52.310;17.016;2023-06-26T03:22:06;37.40;29.90
65072;DHT22;51663;52.310;17.016;2023-06-26T03:25:08;37.90;29.50
65072;DHT22;51663;52.310;17.016;2023-06-26T03:28:11;38.30;29.10
65072;DHT22;51663;52.310;17.016;2023-06-26T03:31:13;38.30;28.90
65072;DHT22;51663;52.310;17.016;2023-06-26T03:34:16;38.10;28.90
65072;DHT22;51663;52.310;17.016;2023-06-26T03:37:18;37.90;29.00
65072;DHT22;51663;52.310;17.016;2023-06-26T03:40:20;37.80;29.20
65072;DHT22;51663;52.310;17.016;2023-06-26T03:43:25;37.70;29.50
65072;DHT22;51663;52.310;17.016;2023-06-26T03:46:28;37.50;29.50
65072;DHT22;51663;52.310;17.016;2023-06-26T03:49:30;37.40;29.80
65072;DHT22;51663;52.310;17.016;2023-06-26T03:52:33;37.40;29.80
65072;DHT22;51663;52.310;17.016;2023-06-26T03:55:35;37.30;29.90
65072;DHT22;51663;52.310;17.016;2023-06-26T03:58:38;37.40;30.00
65072;DHT22;51663;52.310;17.016;2023-06-26T04:01:40;37.40;29.90
65072;DHT22;51663;52.310;17.016;2023-06-26T04:04:42;37.60;29.90
65072;DHT22;51663;52.310;17.016;2023-06-26T04:07:45;38.30;29.60
65072;DHT22;51663;52.310;17.016;2023-06-26T04:10:47;38.50;28.90
65072;DHT22;51663;52.310;17.016;2023-06-26T04:13:49;38.70;28.90
65072;DHT22;51663;52.310;17.016;2023-06-26T04:16:51;38.70;28.90
65072;DHT22;51663;52.310;17.016;2023-06-26T04:19:54;38.80;28.80
65072;DHT22;51663;52.310;17.016;2023-06-26T04:22:56;38.80;28.80
65072;DHT22;51663;52.310;17.016;2023-06-26T04:25:58;39.10;28.70
65072;DHT22;51663;52.310;17.016;2023-06-26T04:29:01;39.50;28.10
65072;DHT22;51663;52.310;17.016;2023-06-26T04:32:03;39.40;28.00
65072;DHT22;51663;52.310;17.016;2023-06-26T04:35:06;39.50;28.00
65072;DHT22;51663;52.310;17.016;2023-06-26T04:38:08;39.50;28.00
65072;DHT22;51663;52.310;17.016;2023-06-26T04:41:11;39.40;28.10
65072;DHT22;51663;52.310;17.016;2023-06-26T04:44:13;39.50;28.30
65072;DHT22;51663;52.310;17.016;2023-06-26T04:47:16;40.10;28.00
65072;DHT22;51663;52.310;17.016;2023-06-26T04:50:18;41.30;26.70
65072;DHT22;51663;52.310;17.016;2023-06-26T04:53:24;42.20;26.30
65072;DHT22;51663;52.310;17.016;2023-06-26T04:56:26;42.70;25.60
65072;DHT22;51663;52.310;17.016;2023-06-26T04:59:29;42.60;25.20
65072;DHT22;51663;52.310;17.016;2023-06-26T05:02:31;42.30;25.60
65072;DHT22;51663;52.310;17.016;2023-06-26T05:05:33;42.50;25.70
65072;DHT22;51663;52.310;17.016;2023-06-26T05:08:35;43.10;24.90
65072;DHT22;51663;52.310;17.016;2023-06-26T05:11:41;44.00;24.80
65072;DHT22;51663;52.310;17.016;2023-06-26T05:14:43;44.60;24.00
65072;DHT22;51663;52.310;17.016;2023-06-26T05:17:45;45.40;23.60
65072;DHT22;51663;52.310;17.016;2023-06-26T05:20:48;45.80;22.80
65072;DHT22;51663;52.310;17.016;2023-06-26T05:23:51;46.20;22.60
65072;DHT22;51663;52.310;17.016;2023-06-26T05:26:56;46.60;22.80
65072;DHT22;51663;52.310;17.016;2023-06-26T05:29:59;47.00;22.20
65072;DHT22;51663;52.310;17.016;2023-06-26T05:33:02;47.30;21.90
65072;DHT22;51663;52.310;17.016;2023-06-26T05:36:05;47.50;21.50
65072;DHT22;51663;52.310;17.016;2023-06-26T05:39:08;47.70;21.60
65072;DHT22;51663;52.310;17.016;2023-06-26T05:42:11;47.80;21.40
65072;DHT22;51663;52.310;17.016;2023-06-26T05:45:14;47.70;22.10
65072;DHT22;51663;52.310;17.016;2023-06-26T05:48:16;47.70;21.90
65072;DHT22;51663;52.310;17.016;2023-06-26T05:51:21;47.80;21.60
65072;DHT22;51663;52.310;17.016;2023-06-26T05:54:24;48.10;21.30
65072;DHT22;51663;52.310;17.016;2023-06-26T05:57:30;48.40;20.80
65072;DHT22;51663;52.310;17.016;2023-06-26T06:00:33;48.50;20.70
65072;DHT22;51663;52.310;17.016;2023-06-26T06:03:35;48.50;21.40
65072;DHT22;51663;52.310;17.016;2023-06-26T06:06:37;48.60;21.20
65072;DHT22;51663;52.310;17.016;2023-06-26T06:09:39;48.60;20.80
65072;DHT22;51663;52.310;17.016;2023-06-26T06:12:42;48.50;20.90
65072;DHT22;51663;52.310;17.016;2023-06-26T06:15:44;48.60;21.30
65072;DHT22;51663;52.310;17.016;2023-06-26T06:18:46;48.50;21.30
65072;DHT22;51663;52.310;17.016;2023-06-26T06:21:48;48.30;21.20
65072;DHT22;51663;52.310;17.016;2023-06-26T06:24:51;48.50;21.10
65072;DHT22;51663;52.310;17.016;2023-06-26T06:27:53;48.50;21.00
65072;DHT22;51663;52.310;17.016;2023-06-26T06:30:56;48.30;21.30
65072;DHT22;51663;52.310;17.016;2023-06-26T06:33:58;48.30;21.10
65072;DHT22;51663;52.310;17.016;2023-06-26T06:37:01;48.50;20.90
65072;DHT22;51663;52.310;17.016;2023-06-26T06:40:08;48.70;21.10
65072;DHT22;51663;52.310;17.016;2023-06-26T06:43:11;48.70;21.80
65072;DHT22;51663;52.310;17.016;2023-06-26T06:46:13;48.90;20.70
65072;DHT22;51663;52.310;17.016;2023-06-26T06:49:15;48.70;20.70
65072;DHT22;51663;52.310;17.016;2023-06-26T06:52:17;48.70;20.70
65072;DHT22;51663;52.310;17.016;2023-06-26T06:55:19;49.00;20.60
65072;DHT22;51663;52.310;17.016;2023-06-26T06:58:21;48.90;20.60
65072;DHT22;51663;52.310;17.016;2023-06-26T07:01:24;48.90;21.40
65072;DHT22;51663;52.310;17.016;2023-06-26T07:04:27;48.80;21.20
65072;DHT22;51663;52.310;17.016;2023-06-26T07:07:30;48.80;20.90
65072;DHT22;51663;52.310;17.016;2023-06-26T07:10:33;48.60;21.20
65072;DHT22;51663;52.310;17.016;2023-06-26T07:13:35;48.80;20.80
65072;DHT22;51663;52.310;17.016;2023-06-26T07:16:38;48.70;20.30
65072;DHT22;51663;52.310;17.016;2023-06-26T07:19:40;48.70;20.30
65072;DHT22;51663;52.310;17.016;2023-06-26T07:22:43;48.80;20.60
65072;DHT22;51663;52.310;17.016;2023-06-26T07:25:47;48.90;19.50
65072;DHT22;51663;52.310;17.016;2023-06-26T07:28:48;49.00;17.50
65072;DHT22;51663;52.310;17.016;2023-06-26T07:31:51;48.90;19.70
65072;DHT22;51663;52.310;17.016;2023-06-26T07:34:53;48.70;18.80
65072;DHT22;51663;52.310;17.016;2023-06-26T07:37:56;48.70;19.80
65072;DHT22;51663;52.310;17.016;2023-06-26T07:40:58;48.70;19.90
65072;DHT22;51663;52.310;17.016;2023-06-26T07:44:00;48.80;19.60
65072;DHT22;51663;52.310;17.016;2023-06-26T07:47:03;48.70;19.40
65072;DHT22;51663;52.310;17.016;2023-06-26T07:50:06;48.60;19.10
65072;DHT22;51663;52.310;17.016;2023-06-26T07:53:08;48.60;19.20
65072;DHT22;51663;52.310;17.016;2023-06-26T07:56:10;48.50;18.70
65072;DHT22;51663;52.310;17.016;2023-06-26T07:59:12;48.40;18.70
65072;DHT22;51663;52.310;17.016;2023-06-26T08:02:16;48.30;18.70
65072;DHT22;51663;52.310;17.016;2023-06-26T08:05:19;48.20;18.90
65072;DHT22;51663;52.310;17.016;2023-06-26T08:08:21;48.20;19.50
65072;DHT22;51663;52.310;17.016;2023-06-26T08:11:23;48.10;19.30
65072;DHT22;51663;52.310;17.016;2023-06-26T08:14:25;48.20;19.90
65072;DHT22;51663;52.310;17.016;2023-06-26T08:17:28;48.10;19.40
65072;DHT22;51663;52.310;17.016;2023-06-26T08:20:31;48.20;19.30
65072;DHT22;51663;52.310;17.016;2023-06-26T08:23:33;48.00;19.40
65072;DHT22;51663;52.310;17.016;2023-06-26T08:26:36;48.10;20.00
65072;DHT22;51663;52.310;17.016;2023-06-26T08:29:38;47.90;19.90
65072;DHT22;51663;52.310;17.016;2023-06-26T08:32:41;47.90;20.70
65072;DHT22;51663;52.310;17.016;2023-06-26T08:35:43;47.40;20.30
65072;DHT22;51663;52.310;17.016;2023-06-26T08:38:45;47.50;20.00
65072;DHT22;51663;52.310;17.016;2023-06-26T08:41:47;47.60;20.60
65072;DHT22;51663;52.310;17.016;2023-06-26T08:44:50;47.60;20.80
65072;DHT22;51663;52.310;17.016;2023-06-26T08:48:04;47.70;20.30
65072;DHT22;51663;52.310;17.016;2023-06-26T08:51:12;47.80;20.00
65072;DHT22;51663;52.310;17.016;2023-06-26T08:54:15;47.60;20.40
65072;DHT22;51663;52.310;17.016;2023-06-26T08:57:21;47.30;20.50
65072;DHT22;51663;52.310;17.016;2023-06-26T09:00:24;46.70;20.80
65072;DHT22;51663;52.310;17.016;2023-06-26T09:03:27;46.20;21.70
65072;DHT22;51663;52.310;17.016;2023-06-26T09:06:30;46.00;21.10
65072;DHT22;51663;52.310;17.016;2023-06-26T09:09:32;45.50;22.00
65072;DHT22;51663;52.310;17.016;2023-06-26T09:12:35;45.10;21.90
65072;DHT22;51663;52.310;17.016;2023-06-26T09:15:38;44.80;22.80
65072;DHT22;51663;52.310;17.016;2023-06-26T09:18:41;44.70;23.10
65072;DHT22;51663;52.310;17.016;2023-06-26T09:21:49;44.70;22.20
65072;DHT22;51663;52.310;17.016;2023-06-26T09:24:52;44.40;22.30
65072;DHT22;51663;52.310;17.016;2023-06-26T09:27:55;44.40;23.00
65072;DHT22;51663;52.310;17.016;2023-06-26T09:31:01;44.20;23.00
65072;DHT22;51663;52.310;17.016;2023-06-26T09:34:09;44.10;22.60
65072;DHT22;51663;52.310;17.016;2023-06-26T09:37:12;44.10;23.00
65072;DHT22;51663;52.310;17.016;2023-06-26T09:40:15;44.30;22.60
65072;DHT22;51663;52.310;17.016;2023-06-26T09:43:18;44.30;22.50
65072;DHT22;51663;52.310;17.016;2023-06-26T09:46:27;44.10;22.50
65072;DHT22;51663;52.310;17.016;2023-06-26T09:49:29;44.10;23.30
65072;DHT22;51663;52.310;17.016;2023-06-26T09:52:33;44.30;23.20
65072;DHT22;51663;52.310;17.016;2023-06-26T09:55:37;44.50;22.20
65072;DHT22;51663;52.310;17.016;2023-06-26T09:58:40;44.60;22.30
65072;DHT22;51663;52.310;17.016;2023-06-26T10:01:45;44.70;22.80
65072;DHT22;51663;52.310;17.016;2023-06-26T10:04:49;44.40;23.20
65072;DHT22;51663;52.310;17.016;2023-06-26T10:07:52;44.20;23.00
65072;DHT22;51663;52.310;17.016;2023-06-26T10:10:57;44.30;22.80
65072;DHT22;51663;52.310;17.016;2023-06-26T10:13:59;44.40;23.40
65072;DHT22;51663;52.310;17.016;2023-06-26T10:17:19;44.30;22.90
65072;DHT22;51663;52.310;17.016;2023-06-26T10:20:24;44.50;23.30
65072;DHT22;51663;52.310;17.016;2023-06-26T10:23:28;44.70;23.20
65072;DHT22;51663;52.310;17.016;2023-06-26T10:26:38;44.70;22.90
65072;DHT22;51663;52.310;17.016;2023-06-26T10:29:41;44.40;22.30
65072;DHT22;51663;52.310;17.016;2023-06-26T10:32:45;44.20;22.60
65072;DHT22;51663;52.310;17.016;2023-06-26T10:35:48;44.10;23.10
65072;DHT22;51663;52.310;17.016;2023-06-26T10:38:53;44.00;24.30
65072;DHT22;51663;52.310;17.016;2023-06-26T10:42:08;44.10;23.80
65072;DHT22;51663;52.310;17.016;2023-06-26T10:45:16;44.00;23.30
65072;DHT22;51663;52.310;17.016;2023-06-26T10:48:19;44.10;22.90
65072;DHT22;51663;52.310;17.016;2023-06-26T10:51:22;44.20;23.50
65072;DHT22;51663;52.310;17.016;2023-06-26T10:54:29;44.30;23.50
65072;DHT22;51663;52.310;17.016;2023-06-26T10:57:32;44.60;22.80
65072;DHT22;51663;52.310;17.016;2023-06-26T11:00:34;44.80;23.10
65072;DHT22;51663;52.310;17.016;2023-06-26T11:03:38;44.70;23.40
65072;DHT22;51663;52.310;17.016;2023-06-26T11:06:41;44.90;22.80
65072;DHT22;51663;52.310;17.016;2023-06-26T11:12:58;44.90;22.50
65072;DHT22;51663;52.310;17.016;2023-06-26T11:16:01;44.90;22.00
65072;DHT22;51663;52.310;17.016;2023-06-26T11:19:04;45.00;22.00
65072;DHT22;51663;52.310;17.016;2023-06-26T11:22:06;45.00;21.90
65072;DHT22;51663;52.310;17.016;2023-06-26T11:25:09;45.20;21.80
65072;DHT22;51663;52.310;17.016;2023-06-26T11:28:12;45.00;21.50
65072;DHT22;51663;52.310;17.016;2023-06-26T11:31:27;44.50;22.30
65072;DHT22;51663;52.310;17.016;2023-06-26T11:34:30;43.20;23.10
65072;DHT22;51663;52.310;17.016;2023-06-26T11:37:33;43.30;23.30
65072;DHT22;51663;52.310;17.016;2023-06-26T11:40:36;43.40;23.50
65072;DHT22;51663;52.310;17.016;2023-06-26T11:43:39;43.30;23.20
65072;DHT22;51663;52.310;17.016;2023-06-26T11:46:42;43.50;23.90
65072;DHT22;51663;52.310;17.016;2023-06-26T11:49:48;43.40;24.10
65072;DHT22;51663;52.310;17.016;2023-06-26T11:52:57;43.60;23.80
65072;DHT22;51663;52.310;17.016;2023-06-26T11:56:08;43.80;23.60
65072;DHT22;51663;52.310;17.016;2023-06-26T11:59:11;44.00;22.80
65072;DHT22;51663;52.310;17.016;2023-06-26T12:02:14;43.80;22.90
65072;DHT22;51663;52.310;17.016;2023-06-26T12:05:18;43.30;23.30
65072;DHT22;51663;52.310;17.016;2023-06-26T12:08:21;42.80;23.70
65072;DHT22;51663;52.310;17.016;2023-06-26T12:11:24;43.00;24.20
65072;DHT22;51663;52.310;17.016;2023-06-26T12:14:27;42.90;24.20
65072;DHT22;51663;52.310;17.016;2023-06-26T12:17:33;42.90;23.90
65072;DHT22;51663;52.310;17.016;2023-06-26T12:20:40;43.10;23.90
65072;DHT22;51663;52.310;17.016;2023-06-26T12:23:42;43.60;23.40
65072;DHT22;51663;52.310;17.016;2023-06-26T12:26:46;43.40;23.80
65072;DHT22;51663;52.310;17.016;2023-06-26T12:29:53;43.10;24.00
65072;DHT22;51663;52.310;17.016;2023-06-26T12:32:56;43.30;23.40
65072;DHT22;51663;52.310;17.016;2023-06-26T12:35:58;43.40;23.50
65072;DHT22;51663;52.310;17.016;2023-06-26T12:39:00;43.70;23.50
65072;DHT22;51663;52.310;17.016;2023-06-26T12:42:03;43.90;24.50
65072;DHT22;51663;52.310;17.016;2023-06-26T12:45:11;44.20;23.80
65072;DHT22;51663;52.310;17.016;2023-06-26T12:48:39;44.30;23.00
65072;DHT22;51663;52.310;17.016;2023-06-26T12:51:53;44.60;23.40
65072;DHT22;51663;52.310;17.016;2023-06-26T12:54:55;44.80;23.80
65072;DHT22;51663;52.310;17.016;2023-06-26T12:57:58;44.90;24.20
65072;DHT22;51663;52.310;17.016;2023-06-26T13:01:05;44.80;24.80
65072;DHT22;51663;52.310;17.016;2023-06-26T13:04:09;44.80;24.30
65072;DHT22;51663;52.310;17.016;2023-06-26T13:07:11;44.80;24.60
65072;DHT22;51663;52.310;17.016;2023-06-26T13:10:14;44.80;24.10
65072;DHT22;51663;52.310;17.016;2023-06-26T13:13:16;44.90;23.90
65072;DHT22;51663;52.310;17.016;2023-06-26T13:16:18;45.00;24.40
65072;DHT22;51663;52.310;17.016;2023-06-26T13:19:20;45.00;24.10
65072;DHT22;51663;52.310;17.016;2023-06-26T13:22:23;45.10;24.40
65072;DHT22;51663;52.310;17.016;2023-06-26T13:25:25;45.20;24.60
65072;DHT22;51663;52.310;17.016;2023-06-26T13:28:27;45.20;24.40
65072;DHT22;51663;52.310;17.016;2023-06-26T13:31:29;45.30;24.50
65072;DHT22;51663;52.310;17.016;2023-06-26T13:34:31;45.20;24.60
65072;DHT22;51663;52.310;17.016;2023-06-26T13:37:34;45.40;24.30
65072;DHT22;51663;52.310;17.016;2023-06-26T13:40:36;45.80;24.20
65072;DHT22;51663;52.310;17.016;2023-06-26T13:43:38;45.90;24.00
65072;DHT22;51663;52.310;17.016;2023-06-26T13:46:41;45.60;24.20
65072;DHT22;51663;52.310;17.016;2023-06-26T13:49:43;46.00;23.60
65072;DHT22;51663;52.310;17.016;2023-06-26T13:52:46;46.20;22.70
65072;DHT22;51663;52.310;17.016;2023-06-26T13:55:48;46.20;22.80
65072;DHT22;51663;52.310;17.016;2023-06-26T13:58:50;46.20;22.70
65072;DHT22;51663;52.310;17.016;2023-06-26T14:01:52;46.20;22.60
65072;DHT22;51663;52.310;17.016;2023-06-26T14:04:56;46.20;22.60
65072;DHT22;51663;52.310;17.016;2023-06-26T14:07:58;46.30;22.40
65072;DHT22;51663;52.310;17.016;2023-06-26T14:11:01;46.20;22.30
65072;DHT22;51663;52.310;17.016;2023-06-26T14:14:03;46.10;22.70
65072;DHT22;51663;52.310;17.016;2023-06-26T14:17:05;46.20;22.40
65072;DHT22;51663;52.310;17.016;2023-06-26T14:20:09;46.40;22.60
65072;DHT22;51663;52.310;17.016;2023-06-26T14:23:14;46.20;22.70
65072;DHT22;51663;52.310;17.016;2023-06-26T14:26:16;46.00;23.00
65072;DHT22;51663;52.310;17.016;2023-06-26T14:29:20;45.70;23.20
65072;DHT22;51663;52.310;17.016;2023-06-26T14:32:23;45.60;23.50
65072;DHT22;51663;52.310;17.016;2023-06-26T14:35:25;45.70;23.60
65072;DHT22;51663;52.310;17.016;2023-06-26T14:38:27;45.90;23.30
65072;DHT22;51663;52.310;17.016;2023-06-26T14:41:30;45.60;23.60
65072;DHT22;51663;52.310;17.016;2023-06-26T14:44:32;45.60;23.70
65072;DHT22;51663;52.310;17.016;2023-06-26T14:47:35;45.80;22.90
65072;DHT22;51663;52.310;17.016;2023-06-26T14:50:37;45.70;23.10
65072;DHT22;51663;52.310;17.016;2023-06-26T14:53:40;45.60;22.70
65072;DHT22;51663;52.310;17.016;2023-06-26T14:56:42;45.40;23.70
65072;DHT22;51663;52.310;17.016;2023-06-26T14:59:46;45.60;23.40
65072;DHT22;51663;52.310;17.016;2023-06-26T15:02:48;45.70;23.60
65072;DHT22;51663;52.310;17.016;2023-06-26T15:05:51;45.90;23.10
65072;DHT22;51663;52.310;17.016;2023-06-26T15:08:53;45.90;23.40
65072;DHT22;51663;52.310;17.016;2023-06-26T15:11:55;45.60;23.80
65072;DHT22;51663;52.310;17.016;2023-06-26T15:14:57;45.70;23.60
65072;DHT22;51663;52.310;17.016;2023-06-26T15:18:00;45.70;23.70
65072;DHT22;51663;52.310;17.016;2023-06-26T15:21:02;45.60;24.40
65072;DHT22;51663;52.310;17.016;2023-06-26T15:24:05;45.60;24.00
65072;DHT22;51663;52.310;17.016;2023-06-26T15:27:07;45.30;24.40
65072;DHT22;51663;52.310;17.016;2023-06-26T15:30:10;45.00;23.70
65072;DHT22;51663;52.310;17.016;2023-06-26T15:33:13;44.80;23.70
65072;DHT22;51663;52.310;17.016;2023-06-26T15:36:15;44.90;24.30
65072;DHT22;51663;52.310;17.016;2023-06-26T15:39:17;44.90;24.10
65072;DHT22;51663;52.310;17.016;2023-06-26T15:42:19;44.90;23.80
65072;DHT22;51663;52.310;17.016;2023-06-26T15:45:22;44.90;23.60
65072;DHT22;51663;52.310;17.016;2023-06-26T15:48:26;44.90;24.00
65072;DHT22;51663;52.310;17.016;2023-06-26T15:51:30;44.70;24.30
65072;DHT22;51663;52.310;17.016;2023-06-26T15:54:35;44.60;24.50
65072;DHT22;51663;52.310;17.016;2023-06-26T15:57:38;44.70;24.50
65072;DHT22;51663;52.310;17.016;2023-06-26T16:00:40;44.80;24.50
65072;DHT22;51663;52.310;17.016;2023-06-26T16:03:42;45.00;24.50
65072;DHT22;51663;52.310;17.016;2023-06-26T16:06:45;45.00;24.60
65072;DHT22;51663;52.310;17.016;2023-06-26T16:09:47;44.90;24.00
65072;DHT22;51663;52.310;17.016;2023-06-26T16:12:50;44.80;24.40
65072;DHT22;51663;52.310;17.016;2023-06-26T16:15:51;44.80;24.10
65072;DHT22;51663;52.310;17.016;2023-06-26T16:18:54;44.60;24.50
65072;DHT22;51663;52.310;17.016;2023-06-26T16:21:56;44.50;24.70
65072;DHT22;51663;52.310;17.016;2023-06-26T16:24:58;44.30;24.60
65072;DHT22;51663;52.310;17.016;2023-06-26T16:28:00;44.30;24.70
65072;DHT22;51663;52.310;17.016;2023-06-26T16:31:02;44.10;24.80
65072;DHT22;51663;52.310;17.016;2023-06-26T16:34:04;44.00;25.00
65072;DHT22;51663;52.310;17.016;2023-06-26T16:37:07;44.20;25.30
65072;DHT22;51663;52.310;17.016;2023-06-26T16:40:10;44.10;25.10
65072;DHT22;51663;52.310;17.016;2023-06-26T16:43:12;44.00;25.20
65072;DHT22;51663;52.310;17.016;2023-06-26T16:46:14;44.00;25.40
65072;DHT22;51663;52.310;17.016;2023-06-26T16:49:17;44.20;25.30
65072;DHT22;51663;52.310;17.016;2023-06-26T16:52:20;44.20;25.50
65072;DHT22;51663;52.310;17.016;2023-06-26T16:55:22;44.30;25.50
65072;DHT22;51663;52.310;17.016;2023-06-26T16:58:25;44.30;25.60
65072;DHT22;51663;52.310;17.016;2023-06-26T17:01:27;44.20;25.60
65072;DHT22;51663;52.310;17.016;2023-06-26T17:04:29;44.20;26.00
65072;DHT22;51663;52.310;17.016;2023-06-26T17:07:32;44.10;25.50
65072;DHT22;51663;52.310;17.016;2023-06-26T17:10:35;43.90;25.80
65072;DHT22;51663;52.310;17.016;2023-06-26T17:13:43;44.00;26.20
65072;DHT22;51663;52.310;17.016;2023-06-26T17:16:45;43.90;26.40
65072;DHT22;51663;52.310;17.016;2023-06-26T17:19:48;43.90;26.30
65072;DHT22;51663;52.310;17.016;2023-06-26T17:22:50;43.90;26.60
65072;DHT22;51663;52.310;17.016;2023-06-26T17:25:53;43.90;26.80
65072;DHT22;51663;52.310;17.016;2023-06-26T17:28:55;43.80;26.10
65072;DHT22;51663;52.310;17.016;2023-06-26T17:31:57;43.80;26.40
65072;DHT22;51663;52.310;17.016;2023-06-26T17:34:59;43.60;27.00
65072;DHT22;51663;52.310;17.016;2023-06-26T17:38:02;43.60;26.80
65072;DHT22;51663;52.310;17.016;2023-06-26T17:41:04;43.50;26.90
65072;DHT22;51663;52.310;17.016;2023-06-26T17:44:07;43.30;27.10
65072;DHT22;51663;52.310;17.016;2023-06-26T17:47:09;43.10;27.40
65072;DHT22;51663;52.310;17.016;2023-06-26T17:50:11;43.00;27.70
65072;DHT22;51663;52.310;17.016;2023-06-26T17:53:15;42.90;27.30
65072;DHT22;51663;52.310;17.016;2023-06-26T17:56:18;42.80;27.60
65072;DHT22;51663;52.310;17.016;2023-06-26T17:59:20;42.70;27.70
65072;DHT22;51663;52.310;17.016;2023-06-26T18:02:22;42.60;27.70
65072;DHT22;51663;52.310;17.016;2023-06-26T18:05:25;42.40;28.00
65072;DHT22;51663;52.310;17.016;2023-06-26T18:08:28;42.30;27.90
65072;DHT22;51663;52.310;17.016;2023-06-26T18:11:31;42.20;28.20
65072;DHT22;51663;52.310;17.016;2023-06-26T18:14:35;42.10;28.20
65072;DHT22;51663;52.310;17.016;2023-06-26T18:17:37;42.00;28.10
65072;DHT22;51663;52.310;17.016;2023-06-26T18:20:41;41.90;28.30
65072;DHT22;51663;52.310;17.016;2023-06-26T18:23:43;41.90;28.20
65072;DHT22;51663;52.310;17.016;2023-06-26T18:26:45;41.90;28.30
65072;DHT22;51663;52.310;17.016;2023-06-26T18:29:47;41.80;28.40
65072;DHT22;51663;52.310;17.016;2023-06-26T18:32:50;41.80;28.50
65072;DHT22;51663;52.310;17.016;2023-06-26T18:35:52;41.80;28.50
65072;DHT22;51663;52.310;17.016;2023-06-26T18:38:55;41.70;28.50
65072;DHT22;51663;52.310;17.016;2023-06-26T18:41:57;41.70;28.70
65072;DHT22;51663;52.310;17.016;2023-06-26T18:44:59;41.60;28.70
65072;DHT22;51663;52.310;17.016;2023-06-26T18:48:01;41.70;28.70
65072;DHT22;51663;52.310;17.016;2023-06-26T18:51:08;41.60;28.80
65072;DHT22;51663;52.310;17.016;2023-06-26T18:54:10;41.60;28.80
65072;DHT22;51663;52.310;17.016;2023-06-26T18:57:12;41.50;29.00
65072;DHT22;51663;52.310;17.016;2023-06-26T19:00:15;41.30;29.60
65072;DHT22;51663;52.310;17.016;2023-06-26T19:03:18;40.30;31.70